createdAt,value
2023-01-11T00:05:46.868Z,3.90
2023-01-11T00:13:52.244Z,4.13
2023-01-11T00:22:00.172Z,4.60
2023-01-11T00:30:05.647Z,5.13
2023-01-11T00:38:33.681Z,13.02
2023-01-11T00:46:51.404Z,15.05
2023-01-11T00:54:59.388Z,13.50
2023-01-11T01:03:04.720Z,16.80
2023-01-11T01:11:12.902Z,14.20
2023-01-11T01:19:18.292Z,16.25
2023-01-11T01:27:26.235Z,9.80
2023-01-11T01:35:31.651Z,9.73
2023-01-11T01:44:00.939Z,9.52
2023-01-11T01:52:06.576Z,12.05
2023-01-11T02:00:15.828Z,8.75
2023-01-11T02:08:26.033Z,9.50
2023-01-11T02:16:34.085Z,38.38
2023-01-11T02:24:59.290Z,22.27
2023-01-11T02:33:18.322Z,42.03
2023-01-11T02:41:49.318Z,22.08
2023-01-11T02:50:04.395Z,10.50
2023-01-11T02:58:13.265Z,9.23
2023-01-11T03:06:24.249Z,6.63
2023-01-11T03:14:37.809Z,6.15
2023-01-11T03:22:55.173Z,8.65
2023-01-11T03:31:07.093Z,6.03
2023-01-11T03:39:23.406Z,8.50
2023-01-11T03:47:33.120Z,7.00
2023-01-11T03:55:43.629Z,4.72
2023-01-11T04:03:49.007Z,5.55
2023-01-11T04:11:56.860Z,9.23
2023-01-11T04:20:02.352Z,16.30
2023-01-11T04:28:10.391Z,15.18
2023-01-11T04:36:16.642Z,13.75
2023-01-11T04:44:24.675Z,19.42
2023-01-11T04:52:30.098Z,27.92
2023-01-11T05:00:38.167Z,17.70
2023-01-11T05:08:43.524Z,16.08
2023-01-11T05:16:51.876Z,19.08
2023-01-11T05:24:57.259Z,9.10
2023-01-11T05:33:05.242Z,10.25
2023-01-11T05:41:12.718Z,10.27
2023-01-11T05:49:20.931Z,13.98
2023-01-11T05:57:26.338Z,11.73
2023-01-11T06:05:38.827Z,9.85
2023-01-11T06:13:47.431Z,10.85
2023-01-11T06:21:56.332Z,26.67
2023-01-11T06:30:01.765Z,30.13
2023-01-11T06:38:11.216Z,27.13
2023-01-11T06:46:19.139Z,25.45
2023-01-11T06:54:28.806Z,29.95
2023-01-11T07:02:34.311Z,24.38
2023-01-11T07:10:44.106Z,19.75
2023-01-11T07:18:50.123Z,20.67
2023-01-11T07:27:01.397Z,36.10
2023-01-11T07:35:08.963Z,38.08
2023-01-11T07:43:20.173Z,39.75
2023-01-11T07:51:25.728Z,35.50
2023-01-11T07:59:33.975Z,33.25
2023-01-11T08:07:39.587Z,29.80
2023-01-11T08:15:48.282Z,25.60
2023-01-11T08:23:56.141Z,19.30
2023-01-11T08:32:04.676Z,19.90
2023-01-11T08:40:11.884Z,22.55
2023-01-11T08:48:19.975Z,21.77
2023-01-11T08:56:26.139Z,17.95
2023-01-11T09:04:34.324Z,16.10
2023-01-11T09:12:41.241Z,15.82
2023-01-11T09:20:49.287Z,15.65
2023-01-11T09:28:54.773Z,16.75
2023-01-11T09:37:04.814Z,16.02
2023-01-11T09:45:18.243Z,12.43
2023-01-11T09:53:32.329Z,11.60
2023-01-11T10:01:43.435Z,9.75
2023-01-11T10:19:04.626Z,6.20
2023-01-11T10:27:30.153Z,8.38
2023-01-11T10:36:02.983Z,8.45
2023-01-11T10:44:19.565Z,2.93
2023-01-11T10:52:35.309Z,3.08
2023-01-11T11:00:51.722Z,3.78
2023-01-11T11:09:03.368Z,4.13
2023-01-11T11:17:20.735Z,2.97
2023-01-11T11:25:33.209Z,3.58
2023-01-11T11:33:42.226Z,5.13
2023-01-11T11:41:52.432Z,2.95
2023-01-11T11:50:43.093Z,3.40
2023-01-11T11:58:50.015Z,3.55
2023-01-11T12:07:10.623Z,4.80
2023-01-11T12:15:29.052Z,3.45
2023-01-11T12:23:38.316Z,5.40
2023-01-11T12:32:13.376Z,5.30
2023-01-11T12:40:28.480Z,4.50
2023-01-11T12:49:00.318Z,3.88
2023-01-11T12:57:34.533Z,5.20
2023-01-11T13:05:55.386Z,4.03
2023-01-11T13:14:17.319Z,4.82
2023-01-11T13:22:28.009Z,4.82
2023-01-11T13:30:36.783Z,4.30
2023-01-11T13:38:46.094Z,4.03
2023-01-11T13:47:06.069Z,4.10
2023-01-11T13:55:32.739Z,7.43
2023-01-11T14:03:51.106Z,7.18
2023-01-11T14:12:04.584Z,6.78
2023-01-11T14:20:25.478Z,5.13
2023-01-11T14:28:55.170Z,8.13
2023-01-11T14:37:28.422Z,7.97
2023-01-11T14:45:52.466Z,6.70
2023-01-11T14:54:07.410Z,10.35
2023-01-11T15:02:28.939Z,27.33
2023-01-11T15:11:12.937Z,14.48
2023-01-11T15:27:39.427Z,13.77
2023-01-11T15:35:45.553Z,12.85
2023-01-11T15:44:19.118Z,11.25
2023-01-11T15:52:57.110Z,16.90
2023-01-11T16:01:28.569Z,19.67
2023-01-11T16:10:07.031Z,16.27
2023-01-11T16:18:27.216Z,12.85
2023-01-11T16:26:32.607Z,14.40
2023-01-11T16:34:47.216Z,93.50
2023-01-11T16:42:58.601Z,28.70
2023-01-11T16:51:10.867Z,50.40
2023-01-11T16:59:26.822Z,37.78
2023-01-11T17:07:35.191Z,35.45
2023-01-11T17:15:53.254Z,46.95
2023-01-11T17:24:04.598Z,28.33
2023-01-11T17:32:16.093Z,22.90
2023-01-11T17:40:31.219Z,25.02
2023-01-11T17:48:37.559Z,21.10
2023-01-11T17:56:46.064Z,24.27
2023-01-11T18:05:01.323Z,36.75
2023-01-11T18:13:26.093Z,40.13
2023-01-11T18:21:42.380Z,41.95
2023-01-11T18:29:56.958Z,34.83
2023-01-11T18:38:02.668Z,40.70
2023-01-11T18:46:13.608Z,39.20
2023-01-11T18:54:20.373Z,42.92
2023-01-11T19:02:31.609Z,42.60
2023-01-11T19:10:37.480Z,43.35
2023-01-11T19:18:46.574Z,50.65
2023-01-11T19:26:52.703Z,57.63
2023-01-11T19:35:18.863Z,60.03
2023-01-11T19:43:24.279Z,61.72
2023-01-11T19:51:32.396Z,53.47
2023-01-11T19:59:37.963Z,54.92
2023-01-11T20:07:48.951Z,60.03
2023-01-11T20:15:55.471Z,55.67
2023-01-11T20:24:04.049Z,72.75
2023-01-11T20:32:31.125Z,87.47
2023-01-11T20:40:38.344Z,71.15
2023-01-11T20:48:44.171Z,66.15
2023-01-11T20:56:52.166Z,61.20
2023-01-11T21:04:57.528Z,57.58
2023-01-11T21:21:15.121Z,82.50
2023-01-11T21:29:22.998Z,85.93
2023-01-11T21:37:28.272Z,77.55
2023-01-11T21:45:36.284Z,74.22
2023-01-11T21:53:43.351Z,80.38
2023-01-11T22:01:51.687Z,83.28
2023-01-11T22:10:04.581Z,71.13
2023-01-11T22:18:13.067Z,64.50
2023-01-11T22:26:20.202Z,55.40
2023-01-11T22:34:28.233Z,53.70
2023-01-11T22:42:33.565Z,56.22
2023-01-11T22:50:50.991Z,52.25
2023-01-11T22:58:56.976Z,40.92
2023-01-11T23:07:04.908Z,46.65
2023-01-11T23:15:11.489Z,37.10
2023-01-11T23:23:19.427Z,34.92
2023-01-11T23:31:26.442Z,31.13
2023-01-11T23:39:34.370Z,31.63
2023-01-11T23:47:39.639Z,37.88
2023-01-11T23:55:47.679Z,42.72
